Time;durP1;ratioP1;P1;durP2;ratioP2;P2;SDS_P1;SDS_P2;PMS_P1;PMS_P2;Temp;Humidity;BMP_temperature;BMP_pressure;BME280_temperature;BME280_humidity;BME280_pressure;Samples;Min_cycle;Max_cycle;Signal;HPM_P1;HPM_P2
2022/08/29 00:00:23;;;;;;;0.20;0.20;;;18.00;99.90;;;;;;5094308;28;20272;-81
2022/08/29 00:02:52;;;;;;;0.73;0.37;;;18.00;99.90;;;;;;5090371;28;20287;-81
2022/08/29 00:05:20;;;;;;;0.40;0.40;;;18.00;99.90;;;;;;5092839;28;20180;-81
2022/08/29 00:07:46;;;;;;;0.10;0.10;;;18.00;99.90;;;;;;5089098;28;20240;-81
2022/08/29 00:10:12;;;;;;;0.20;0.20;;;17.90;99.90;;;;;;5080474;28;20593;-81
2022/08/29 00:12:38;;;;;;;0.27;0.27;;;17.80;99.90;;;;;;5087528;28;20186;-81
2022/08/29 00:15:06;;;;;;;0.20;0.20;;;17.80;99.90;;;;;;5091405;28;20184;-81
2022/08/29 00:17:32;;;;;;;0.30;0.30;;;17.80;99.90;;;;;;5093347;28;20204;-80
2022/08/29 00:19:57;;;;;;;0.10;0.10;;;17.70;99.90;;;;;;5097816;28;20233;-80
2022/08/29 00:22:23;;;;;;;0.40;0.40;;;17.70;99.90;;;;;;5086349;28;20272;-81
2022/08/29 00:24:48;;;;;;;0.30;0.30;;;17.70;99.90;;;;;;5094497;28;20275;-81
2022/08/29 00:27:14;;;;;;;0.20;0.20;;;17.60;99.90;;;;;;5087631;28;20710;-81
2022/08/29 00:29:40;;;;;;;1.60;0.50;;;17.60;99.90;;;;;;5092792;28;20275;-81
2022/08/29 00:32:05;;;;;;;0.13;0.13;;;17.60;99.90;;;;;;5084671;28;20190;-81
2022/08/29 00:34:31;;;;;;;0.30;0.23;;;17.70;99.90;;;;;;5093522;28;20537;-81
2022/08/29 00:36:56;;;;;;;0.30;0.30;;;17.70;99.90;;;;;;5091616;28;20208;-81
2022/08/29 00:39:22;;;;;;;0.20;0.20;;;17.80;99.90;;;;;;5083949;28;20238;-81
2022/08/29 00:41:48;;;;;;;0.17;0.13;;;17.90;99.90;;;;;;5092143;28;20578;-81
2022/08/29 00:44:13;;;;;;;0.20;0.20;;;18.00;99.90;;;;;;5094172;28;20188;-81
2022/08/29 00:46:45;;;;;;;0.10;0.10;;;18.00;99.90;;;;;;5085160;28;20633;-81
2022/08/29 00:49:13;;;;;;;0.47;0.20;;;18.10;99.90;;;;;;5098647;28;20218;-81
2022/08/29 00:51:40;;;;;;;0.20;0.20;;;18.20;99.90;;;;;;5083171;28;20179;-81
2022/08/29 00:54:10;;;;;;;0.53;0.30;;;18.20;99.90;;;;;;5079934;28;20191;-81
2022/08/29 00:56:38;;;;;;;0.13;0.13;;;18.20;99.90;;;;;;5084256;28;20193;-81
2022/08/29 00:59:14;;;;;;;0.20;0.20;;;18.20;99.90;;;;;;5087822;28;20203;-81
2022/08/29 01:01:40;;;;;;;0.23;0.23;;;18.20;99.90;;;;;;5081322;28;20187;-81
2022/08/29 01:04:05;;;;;;;0.23;0.23;;;18.10;99.90;;;;;;5086507;28;20666;-81
2022/08/29 01:06:33;;;;;;;0.10;0.10;;;18.10;99.90;;;;;;5079670;28;20235;-81
2022/08/29 01:08:59;;;;;;;0.53;0.30;;;18.00;99.90;;;;;;5083538;28;20291;-81
2022/08/29 01:14:13;;;;;;;0.23;0.20;;;17.90;99.90;;;;;;5084869;28;20575;-81
2022/08/29 01:16:39;;;;;;;0.50;0.50;;;17.90;99.90;;;;;;5093593;28;20201;-81
2022/08/29 01:19:20;;;;;;;0.13;0.13;;;17.90;99.90;;;;;;5081023;28;20204;-81
2022/08/29 01:22:05;;;;;;;0.20;0.20;;;17.90;99.90;;;;;;5081228;28;20179;-81
2022/08/29 01:24:49;;;;;;;0.30;0.20;;;17.90;99.90;;;;;;5083854;28;20176;-81
2022/08/29 01:27:16;;;;;;;0.20;0.20;;;17.90;99.90;;;;;;5082147;28;20195;-81
2022/08/29 01:29:42;;;;;;;0.10;0.10;;;17.90;99.90;;;;;;5086199;28;20290;-80
2022/08/29 01:32:08;;;;;;;0.37;0.37;;;17.90;99.90;;;;;;5075953;28;20679;-81
2022/08/29 01:34:33;;;;;;;0.30;0.30;;;17.90;99.90;;;;;;5084659;28;20186;-81
2022/08/29 01:37:03;;;;;;;0.17;0.17;;;17.80;99.90;;;;;;5080662;28;20211;-81
2022/08/29 01:39:32;;;;;;;0.50;0.50;;;17.70;99.90;;;;;;5081353;28;20212;-81
2022/08/29 01:42:00;;;;;;;0.20;0.20;;;17.70;99.90;;;;;;5079883;28;20181;-81
2022/08/29 01:44:26;;;;;;;0.20;0.20;;;17.70;99.90;;;;;;5097358;28;20185;-81
2022/08/29 01:46:55;;;;;;;0.93;0.30;;;17.70;99.90;;;;;;5083001;28;20195;-81
2022/08/29 01:49:22;;;;;;;0.40;0.40;;;17.70;99.90;;;;;;5098375;28;20224;-81
2022/08/29 01:51:47;;;;;;;0.10;0.10;;;17.70;99.90;;;;;;5087142;28;20263;-81
2022/08/29 01:54:14;;;;;;;0.20;0.20;;;17.60;99.90;;;;;;5086473;28;20834;-81
2022/08/29 01:56:43;;;;;;;0.30;0.30;;;17.70;99.90;;;;;;5084583;28;20282;-81
2022/08/29 01:59:12;;;;;;;0.20;0.20;;;17.70;99.90;;;;;;5087502;28;20223;-81
2022/08/29 02:01:42;;;;;;;0.10;0.10;;;17.60;99.90;;;;;;5085488;28;20531;-81
2022/08/29 02:04:08;;;;;;;0.87;0.40;;;17.50;99.90;;;;;;5088891;28;20179;-81
2022/08/29 02:06:35;;;;;;;0.50;0.20;;;17.60;99.90;;;;;;5084113;28;20250;-81
2022/08/29 02:09:01;;;;;;;0.30;0.30;;;17.50;99.90;;;;;;5093748;28;20292;-81
2022/08/29 02:11:27;;;;;;;0.13;0.13;;;17.50;99.90;;;;;;5086243;28;20280;-81
2022/08/29 02:13:55;;;;;;;0.63;0.33;;;17.50;99.90;;;;;;5098201;28;20185;-81
2022/08/29 02:16:23;;;;;;;0.30;0.30;;;17.50;99.90;;;;;;5090703;28;20204;-81
2022/08/29 02:18:49;;;;;;;0.10;0.10;;;17.50;99.90;;;;;;5100802;28;20245;-81
2022/08/29 02:21:18;;;;;;;0.20;0.20;;;17.30;99.90;;;;;;5090864;28;20222;-81
2022/08/29 02:23:45;;;;;;;0.30;0.30;;;17.30;99.90;;;;;;5080910;28;20188;-81
2022/08/29 02:26:10;;;;;;;0.20;0.20;;;17.30;99.90;;;;;;5082466;28;20571;-81
2022/08/29 02:28:37;;;;;;;0.30;0.30;;;17.20;99.90;;;;;;5093722;28;20292;-80
2022/08/29 02:31:04;;;;;;;0.37;0.37;;;17.30;99.90;;;;;;5093562;28;20217;-81
2022/08/29 02:33:30;;;;;;;0.20;0.20;;;17.20;99.90;;;;;;5091219;28;20195;-81
2022/08/29 02:35:56;;;;;;;0.23;0.23;;;17.10;99.90;;;;;;5080877;28;20189;-81
2022/08/29 02:38:22;;;;;;;0.37;0.37;;;16.90;99.90;;;;;;5098891;28;20319;-81
2022/08/29 02:40:49;;;;;;;0.47;0.47;;;16.80;99.90;;;;;;5089203;28;20677;-81
2022/08/29 02:43:16;;;;;;;3.83;0.60;;;16.80;99.90;;;;;;5088443;28;20228;-81
2022/08/29 02:45:43;;;;;;;0.40;0.40;;;16.80;99.90;;;;;;5090046;28;20176;-81
2022/08/29 02:48:10;;;;;;;0.37;0.37;;;16.80;99.90;;;;;;5089901;28;20284;-81
2022/08/29 02:50:39;;;;;;;0.10;0.10;;;16.70;99.90;;;;;;5091489;28;20174;-81
2022/08/29 02:53:04;;;;;;;0.20;0.20;;;16.70;99.90;;;;;;5074151;28;20208;-81
2022/08/29 02:55:30;;;;;;;0.10;0.10;;;16.40;99.90;;;;;;5098442;28;20632;-81
2022/08/29 02:57:57;;;;;;;0.40;0.40;;;16.30;99.90;;;;;;5084707;28;20236;-81
2022/08/29 03:00:25;;;;;;;0.30;0.30;;;16.20;99.90;;;;;;5094274;28;20208;-81
2022/08/29 03:02:51;;;;;;;0.20;0.20;;;16.30;99.90;;;;;;5087815;28;22180;-81
2022/08/29 03:05:20;;;;;;;0.30;0.30;;;16.30;99.90;;;;;;5096860;28;20179;-81
2022/08/29 03:07:46;;;;;;;0.17;0.17;;;16.20;99.90;;;;;;5087068;28;20183;-81
2022/08/29 03:10:12;;;;;;;0.10;0.10;;;16.20;99.90;;;;;;5083390;28;20188;-80
2022/08/29 03:12:37;;;;;;;0.30;0.30;;;16.20;99.90;;;;;;5091591;28;20255;-80
2022/08/29 03:15:05;;;;;;;0.20;0.20;;;16.10;99.90;;;;;;5080703;28;20225;-80
2022/08/29 03:17:30;;;;;;;0.10;0.10;;;16.00;99.90;;;;;;5085545;28;20207;-81
2022/08/29 03:19:57;;;;;;;0.20;0.20;;;16.00;99.90;;;;;;5086592;28;20196;-81
2022/08/29 03:22:24;;;;;;;0.30;0.30;;;16.00;99.90;;;;;;5086412;28;20176;-81
2022/08/29 03:24:49;;;;;;;0.10;0.10;;;16.00;99.90;;;;;;5082048;28;20214;-80
2022/08/29 03:27:15;;;;;;;0.20;0.20;;;16.10;99.90;;;;;;5091045;28;20222;-81
2022/08/29 03:29:40;;;;;;;0.30;0.30;;;16.00;99.90;;;;;;5090137;28;20283;-81
2022/08/29 03:32:06;;;;;;;0.20;0.20;;;15.90;99.90;;;;;;5084707;28;20187;-81
2022/08/29 03:34:33;;;;;;;0.50;0.50;;;15.70;99.90;;;;;;5086863;28;20195;-81
2022/08/29 03:36:59;;;;;;;1.10;0.87;;;15.60;99.90;;;;;;5073256;28;20214;-81
2022/08/29 03:39:25;;;;;;;0.10;0.10;;;15.60;99.90;;;;;;5078040;28;20258;-80
2022/08/29 03:41:50;;;;;;;2.70;0.27;;;15.50;99.90;;;;;;5081492;28;20206;-81
2022/08/29 03:44:16;;;;;;;1.47;0.70;;;15.50;99.90;;;;;;5079521;28;20696;-81
2022/08/29 03:46:42;;;;;;;0.30;0.30;;;15.50;99.90;;;;;;5090716;28;20183;-80
2022/08/29 03:49:08;;;;;;;1.70;0.43;;;15.40;99.90;;;;;;5070804;28;20240;-80
2022/08/29 03:51:34;;;;;;;0.10;0.10;;;15.40;99.90;;;;;;5074911;28;20194;-81
2022/08/29 03:54:00;;;;;;;1.60;0.50;;;15.40;99.90;;;;;;5079252;28;20645;-80
2022/08/29 03:56:26;;;;;;;1.20;1.20;;;15.40;99.90;;;;;;5077923;28;20236;-80
2022/08/29 03:58:52;;;;;;;0.17;0.17;;;15.40;99.90;;;;;;5078141;28;20226;-81
2022/08/29 04:01:18;;;;;;;0.10;0.10;;;15.40;99.90;;;;;;5079633;28;20216;-81
2022/08/29 04:03:44;;;;;;;0.20;0.20;;;15.30;99.90;;;;;;5076630;28;20182;-81
2022/08/29 04:06:10;;;;;;;0.20;0.20;;;15.40;99.90;;;;;;5093225;28;20183;-81
2022/08/29 04:08:36;;;;;;;0.30;0.30;;;15.40;99.90;;;;;;5081800;28;20234;-81
2022/08/29 04:11:11;;;;;;;0.10;0.10;;;15.50;99.90;;;;;;5088488;28;20178;-81
2022/08/29 04:13:37;;;;;;;0.57;0.27;;;15.40;99.90;;;;;;5071228;28;20180;-81
2022/08/29 04:16:08;;;;;;;0.30;0.30;;;15.50;99.90;;;;;;5083628;28;20208;-81
2022/08/29 04:18:34;;;;;;;2.30;0.13;;;15.50;99.90;;;;;;5094282;28;20543;-81
2022/08/29 04:21:01;;;;;;;0.37;0.30;;;15.50;99.90;;;;;;5085001;28;20265;-81
2022/08/29 04:23:27;;;;;;;0.73;0.33;;;15.40;99.90;;;;;;5090090;28;20190;-81
2022/08/29 04:25:52;;;;;;;0.30;0.30;;;15.40;99.90;;;;;;5085847;28;20189;-81
2022/08/29 04:28:18;;;;;;;0.87;0.33;;;15.40;99.90;;;;;;5084156;28;20220;-81
2022/08/29 04:30:48;;;;;;;0.40;0.37;;;15.30;99.90;;;;;;5075772;28;20236;-81
2022/08/29 04:33:13;;;;;;;0.47;0.47;;;15.30;99.90;;;;;;5073664;28;20195;-81
2022/08/29 04:35:39;;;;;;;0.30;0.20;;;15.30;99.90;;;;;;5075695;28;20192;-81
2022/08/29 04:38:05;;;;;;;3.63;0.53;;;15.20;99.90;;;;;;5087999;28;20216;-81
2022/08/29 04:40:31;;;;;;;0.20;0.20;;;15.20;99.90;;;;;;5082253;28;20230;-81
2022/08/29 04:42:58;;;;;;;0.40;0.37;;;15.20;99.90;;;;;;5082670;28;20255;-81
2022/08/29 04:45:24;;;;;;;0.20;0.20;;;15.20;99.90;;;;;;5079111;28;20303;-81
2022/08/29 04:47:50;;;;;;;0.27;0.27;;;15.30;99.90;;;;;;5077768;28;20187;-81
2022/08/29 04:50:22;;;;;;;0.20;0.20;;;15.30;99.90;;;;;;5077616;28;20199;-81
2022/08/29 04:52:49;;;;;;;0.27;0.27;;;15.40;99.90;;;;;;5087110;28;20179;-81
2022/08/29 04:55:16;;;;;;;0.20;0.20;;;15.40;99.90;;;;;;5094138;28;20180;-81
2022/08/29 04:57:41;;;;;;;0.30;0.30;;;15.40;99.90;;;;;;5085181;28;20209;-81
2022/08/29 05:00:12;;;;;;;0.50;0.50;;;15.40;99.90;;;;;;5097291;28;20728;-81
2022/08/29 05:02:38;;;;;;;0.10;0.10;;;15.40;99.90;;;;;;5085272;28;20186;-81
2022/08/29 05:05:05;;;;;;;0.43;0.43;;;15.50;99.90;;;;;;5091358;28;20239;-81
2022/08/29 05:07:31;;;;;;;0.83;0.57;;;15.40;99.90;;;;;;5082263;28;20189;-81
2022/08/29 05:10:03;;;;;;;0.30;0.30;;;15.40;99.90;;;;;;5084589;28;20896;-81
2022/08/29 05:12:30;;;;;;;0.20;0.20;;;15.50;99.90;;;;;;5083848;28;20193;-81
2022/08/29 05:14:56;;;;;;;0.37;0.37;;;15.40;99.90;;;;;;5092532;28;20180;-80
2022/08/29 05:17:22;;;;;;;0.20;0.20;;;15.50;99.90;;;;;;5076306;28;20209;-81
2022/08/29 05:19:49;;;;;;;1.33;0.40;;;15.60;99.90;;;;;;5084006;28;20218;-81
2022/08/29 05:22:15;;;;;;;0.10;0.10;;;15.70;99.90;;;;;;5090590;28;20195;-82
2022/08/29 05:24:42;;;;;;;0.30;0.30;;;15.70;99.90;;;;;;5081811;28;20651;-82
2022/08/29 05:27:09;;;;;;;0.20;0.20;;;15.80;99.90;;;;;;5077592;28;20181;-81
2022/08/29 05:29:40;;;;;;;0.37;0.37;;;15.90;99.90;;;;;;5081614;28;20202;-82
2022/08/29 05:32:07;;;;;;;0.23;0.23;;;16.00;99.90;;;;;;5090440;28;20653;-82
2022/08/29 05:34:34;;;;;;;0.43;0.43;;;16.20;99.90;;;;;;5090659;28;20282;-81
2022/08/29 05:37:01;;;;;;;0.30;0.30;;;16.50;99.90;;;;;;5098762;28;20283;-82
2022/08/29 05:39:26;;;;;;;0.30;0.30;;;16.60;99.90;;;;;;5087006;28;20248;-81
2022/08/29 05:41:56;;;;;;;1.33;0.67;;;16.70;99.90;;;;;;5089426;28;20210;-81
2022/08/29 05:44:22;;;;;;;1.03;0.50;;;16.90;99.90;;;;;;5098509;28;20187;-81
2022/08/29 05:46:48;;;;;;;0.30;0.30;;;16.90;99.90;;;;;;5094245;28;20192;-82
2022/08/29 05:49:14;;;;;;;0.30;0.30;;;17.10;99.90;;;;;;5082579;28;20732;-82
2022/08/29 05:51:41;;;;;;;0.20;0.20;;;17.40;99.90;;;;;;5091819;28;20184;-82
2022/08/29 05:54:07;;;;;;;0.40;0.40;;;17.60;99.90;;;;;;5085457;28;20719;-82
2022/08/29 05:56:32;;;;;;;0.70;0.37;;;17.80;99.90;;;;;;5093774;28;20199;-82
2022/08/29 05:58:58;;;;;;;0.30;0.30;;;17.80;99.90;;;;;;5096073;28;20202;-82
2022/08/29 06:01:27;;;;;;;0.20;0.20;;;17.80;99.90;;;;;;5099828;28;20207;-81
2022/08/29 06:03:53;;;;;;;0.10;0.10;;;17.90;99.90;;;;;;5098120;28;20617;-81
2022/08/29 06:06:20;;;;;;;0.30;0.30;;;18.00;99.90;;;;;;5084461;28;20673;-80
2022/08/29 06:08:46;;;;;;;0.30;0.30;;;18.10;99.90;;;;;;5092851;28;20226;-81
2022/08/29 06:11:14;;;;;;;0.33;0.30;;;18.30;99.90;;;;;;5089577;28;20267;-81
2022/08/29 06:13:39;;;;;;;0.30;0.30;;;18.30;99.90;;;;;;5096476;28;20177;-81
2022/08/29 06:16:05;;;;;;;0.20;0.20;;;18.30;99.90;;;;;;5096416;28;20191;-81
2022/08/29 06:18:31;;;;;;;0.63;0.40;;;18.30;99.90;;;;;;5093940;28;20695;-81
2022/08/29 06:20:56;;;;;;;0.20;0.20;;;18.50;99.90;;;;;;5096311;28;20182;-81
2022/08/29 06:23:22;;;;;;;0.97;0.40;;;18.60;99.90;;;;;;5089869;28;20204;-81
2022/08/29 06:25:57;;;;;;;0.37;0.37;;;18.50;99.90;;;;;;5084797;28;20761;-81
2022/08/29 06:28:28;;;;;;;0.30;0.30;;;18.50;99.90;;;;;;5103149;28;20202;-81
2022/08/29 06:30:54;;;;;;;0.30;0.30;;;18.60;99.90;;;;;;5088079;28;20180;-81
2022/08/29 06:33:20;;;;;;;0.33;0.33;;;18.70;99.90;;;;;;5087748;28;20243;-81
2022/08/29 06:35:45;;;;;;;0.20;0.20;;;19.10;99.90;;;;;;5083672;28;20299;-81
2022/08/29 06:38:11;;;;;;;0.30;0.30;;;19.10;99.90;;;;;;5078026;28;20214;-80
2022/08/29 06:40:36;;;;;;;0.27;0.27;;;19.50;99.90;;;;;;5082861;28;20215;-81
2022/08/29 06:43:02;;;;;;;0.97;0.53;;;19.70;99.90;;;;;;5073745;28;20176;-81
2022/08/29 06:45:27;;;;;;;0.40;0.40;;;19.80;99.90;;;;;;5088888;28;20631;-81
2022/08/29 06:47:53;;;;;;;0.30;0.30;;;20.00;99.90;;;;;;5096232;28;20183;-81
2022/08/29 06:50:19;;;;;;;0.67;0.67;;;20.00;99.90;;;;;;5086977;28;20200;-81
2022/08/29 06:52:44;;;;;;;0.47;0.37;;;20.20;99.90;;;;;;5095500;28;20208;-80
2022/08/29 06:55:11;;;;;;;0.20;0.20;;;20.40;99.90;;;;;;5091418;28;20192;-81
2022/08/29 06:57:43;;;;;;;0.37;0.37;;;20.60;99.90;;;;;;5086497;28;20207;-81
2022/08/29 07:00:12;;;;;;;0.30;0.30;;;20.50;99.90;;;;;;5088215;28;20200;-81
2022/08/29 07:02:39;;;;;;;1.30;0.43;;;21.00;99.90;;;;;;5086673;28;20177;-81
2022/08/29 07:05:06;;;;;;;1.53;1.00;;;20.90;99.90;;;;;;5086188;28;20225;-81
2022/08/29 07:07:32;;;;;;;0.33;0.33;;;20.90;99.90;;;;;;5081293;28;20284;-81
2022/08/29 07:09:59;;;;;;;0.37;0.37;;;21.00;99.90;;;;;;5091907;28;20229;-81
2022/08/29 07:12:24;;;;;;;0.83;0.60;;;21.10;99.90;;;;;;5092682;28;20218;-81
2022/08/29 07:14:50;;;;;;;0.67;0.37;;;21.40;99.90;;;;;;5089568;28;20212;-81
2022/08/29 07:17:15;;;;;;;0.70;0.23;;;21.40;99.90;;;;;;5086806;28;20204;-81
2022/08/29 07:19:41;;;;;;;0.40;0.40;;;21.70;99.90;;;;;;5096091;28;20203;-81
2022/08/29 07:22:07;;;;;;;0.30;0.30;;;21.30;99.90;;;;;;5087192;28;20662;-81
2022/08/29 07:24:33;;;;;;;0.90;0.83;;;20.90;99.90;;;;;;5089247;28;20641;-81
2022/08/29 07:26:59;;;;;;;0.63;0.53;;;21.00;99.90;;;;;;5086709;28;20184;-82
2022/08/29 07:29:25;;;;;;;0.20;0.20;;;20.70;99.90;;;;;;5079564;28;20212;-81
2022/08/29 07:31:51;;;;;;;0.20;0.20;;;20.80;99.90;;;;;;5092577;28;20188;-82
2022/08/29 07:34:18;;;;;;;0.77;0.30;;;21.00;99.90;;;;;;5083849;28;20689;-81
2022/08/29 07:36:43;;;;;;;0.57;0.40;;;21.00;99.90;;;;;;5091280;28;20214;-82
2022/08/29 07:39:13;;;;;;;0.70;0.30;;;21.30;99.90;;;;;;5084403;28;20230;-81
2022/08/29 07:41:40;;;;;;;0.40;0.40;;;21.40;99.90;;;;;;5083911;28;20180;-81
2022/08/29 07:44:06;;;;;;;0.30;0.30;;;21.50;99.90;;;;;;5084347;28;20185;-81
2022/08/29 07:46:32;;;;;;;0.27;0.27;;;21.60;99.90;;;;;;5093983;28;20635;-81
2022/08/29 07:48:58;;;;;;;0.40;0.40;;;21.60;99.90;;;;;;5086023;28;20220;-81
2022/08/29 07:51:24;;;;;;;0.30;0.30;;;21.30;99.90;;;;;;5086061;28;20196;-81
2022/08/29 07:53:51;;;;;;;0.30;0.30;;;21.50;99.90;;;;;;5103046;28;20179;-81
2022/08/29 07:56:21;;;;;;;0.87;0.50;;;21.40;99.90;;;;;;5092564;28;20228;-81
2022/08/29 07:58:47;;;;;;;0.30;0.30;;;21.40;99.90;;;;;;5082479;28;20286;-81
2022/08/29 08:01:13;;;;;;;0.10;0.10;;;21.80;99.90;;;;;;5096556;28;20637;-81
2022/08/29 08:03:39;;;;;;;0.20;0.20;;;22.40;99.90;;;;;;5084339;28;20185;-82
2022/08/29 08:06:05;;;;;;;0.20;0.20;;;22.90;99.90;;;;;;5087746;28;20172;-81
2022/08/29 08:08:31;;;;;;;0.47;0.43;;;22.70;99.90;;;;;;5085889;28;20212;-81
2022/08/29 08:10:56;;;;;;;3.07;0.60;;;22.80;99.90;;;;;;5111733;28;20175;-81
2022/08/29 08:13:22;;;;;;;0.43;0.43;;;22.10;99.90;;;;;;5084843;28;20223;-81
2022/08/29 08:15:47;;;;;;;0.40;0.40;;;22.00;99.90;;;;;;5082769;28;20278;-81
2022/08/29 08:18:13;;;;;;;0.40;0.40;;;22.00;99.90;;;;;;5086062;28;20212;-81
2022/08/29 08:20:39;;;;;;;0.37;0.37;;;21.70;99.90;;;;;;5083556;28;20253;-81
2022/08/29 08:23:05;;;;;;;0.30;0.30;;;22.00;99.90;;;;;;5087276;28;20173;-81
2022/08/29 08:25:31;;;;;;;3.07;0.47;;;22.40;99.90;;;;;;5087006;28;20176;-81
2022/08/29 08:27:57;;;;;;;0.40;0.40;;;22.70;99.90;;;;;;5086495;28;20177;-81
2022/08/29 08:30:23;;;;;;;0.20;0.20;;;22.90;99.90;;;;;;5080724;28;20184;-81
2022/08/29 08:32:50;;;;;;;0.50;0.50;;;21.90;99.90;;;;;;5089069;28;20183;-81
2022/08/29 08:35:16;;;;;;;0.53;0.50;;;22.30;99.90;;;;;;5082453;28;20195;-81
2022/08/29 08:37:42;;;;;;;0.47;0.33;;;22.70;99.90;;;;;;5089035;28;20200;-81
2022/08/29 08:40:17;;;;;;;0.30;0.30;;;23.00;99.90;;;;;;5082620;28;20678;-81
2022/08/29 08:42:44;;;;;;;0.47;0.47;;;23.20;99.90;;;;;;5089200;28;20207;-81
2022/08/29 08:45:18;;;;;;;0.20;0.20;;;23.00;99.90;;;;;;5082711;28;20697;-81
2022/08/29 08:48:02;;;;;;;0.30;0.30;;;23.50;99.90;;;;;;5090676;28;20236;-81
2022/08/29 08:50:47;;;;;;;0.27;0.27;;;23.30;99.90;;;;;;5085798;28;20234;-81
2022/08/29 08:53:58;;;;;;;0.33;0.33;;;22.70;99.90;;;;;;5088837;28;20188;-81
2022/08/29 08:56:46;;;;;;;0.27;0.27;;;23.20;99.90;;;;;;5076900;28;20246;-81
2022/08/29 08:59:28;;;;;;;0.30;0.30;;;23.90;99.90;;;;;;5081817;28;20200;-81
2022/08/29 09:02:02;;;;;;;0.80;0.80;;;24.30;99.90;;;;;;5086963;28;20176;-81
2022/08/29 09:04:56;;;;;;;0.40;0.30;;;24.10;99.90;;;;;;5081378;28;20184;-81
2022/08/29 09:07:31;;;;;;;0.83;0.83;;;24.30;99.90;;;;;;5084204;28;20609;-81
2022/08/29 09:10:02;;;;;;;0.60;0.53;;;24.30;99.90;;;;;;5085383;28;20200;-81
2022/08/29 09:13:09;;;;;;;0.30;0.30;;;24.80;99.90;;;;;;5085377;28;20235;-80
2022/08/29 09:15:42;;;;;;;1.30;1.17;;;25.10;99.90;;;;;;5081210;28;20215;-81
2022/08/29 09:18:22;;;;;;;0.23;0.20;;;24.90;99.90;;;;;;5079549;28;20223;-81
2022/08/29 09:20:48;;;;;;;0.40;0.40;;;25.10;99.90;;;;;;5077893;28;20182;-81
2022/08/29 09:23:29;;;;;;;0.53;0.37;;;24.60;99.90;;;;;;5085322;28;20184;-81
2022/08/29 09:25:54;;;;;;;0.33;0.33;;;24.30;99.90;;;;;;5081734;28;20542;-81
2022/08/29 09:28:20;;;;;;;0.53;0.50;;;24.70;99.90;;;;;;5088301;28;20215;-81
2022/08/29 09:31:17;;;;;;;0.30;0.30;;;24.90;99.90;;;;;;5091410;28;20558;-81
2022/08/29 09:33:51;;;;;;;0.37;0.37;;;25.00;99.90;;;;;;5090042;28;20258;-81
2022/08/29 09:36:39;;;;;;;0.70;0.60;;;24.80;99.90;;;;;;5083692;28;20253;-80
2022/08/29 09:39:12;;;;;;;0.30;0.30;;;25.20;99.90;;;;;;5087229;28;20212;-80
2022/08/29 09:41:38;;;;;;;1.63;0.33;;;25.40;99.90;;;;;;5095859;28;20183;-81
2022/08/29 09:44:08;;;;;;;0.30;0.30;;;25.60;99.90;;;;;;5086633;28;20188;-81
2022/08/29 09:46:33;;;;;;;0.73;0.70;;;25.90;99.90;;;;;;5088600;28;20202;-80
2022/08/29 09:48:59;;;;;;;0.57;0.57;;;24.90;99.90;;;;;;5100697;28;20268;-81
2022/08/29 09:51:31;;;;;;;2.40;0.60;;;24.70;99.90;;;;;;5082989;28;20229;-82
2022/08/29 09:54:13;;;;;;;0.30;0.30;;;24.90;99.90;;;;;;5092632;28;20215;-81
2022/08/29 09:57:05;;;;;;;0.83;0.40;;;24.20;99.90;;;;;;5101021;28;20204;-81
2022/08/29 09:59:37;;;;;;;0.27;0.27;;;24.60;99.90;;;;;;5076314;28;20209;-81
2022/08/29 10:02:24;;;;;;;0.57;0.53;;;25.10;99.90;;;;;;5103737;28;20262;-80
2022/08/29 10:05:00;;;;;;;0.27;0.27;;;25.40;99.90;;;;;;5092745;28;20267;-81
2022/08/29 10:07:33;;;;;;;0.10;0.10;;;25.60;99.90;;;;;;5091921;28;20199;-81
2022/08/29 10:10:17;;;;;;;0.37;0.33;;;25.60;99.90;;;;;;5089540;28;20575;-81
2022/08/29 10:12:49;;;;;;;0.20;0.20;;;25.40;99.90;;;;;;5099662;28;20923;-81
2022/08/29 10:15:28;;;;;;;0.30;0.30;;;25.00;99.90;;;;;;5088001;28;20966;-80
2022/08/29 10:18:22;;;;;;;0.30;0.27;;;25.60;99.90;;;;;;5086421;28;20302;-81
2022/08/29 10:21:06;;;;;;;0.20;0.20;;;25.70;99.90;;;;;;5079539;28;20177;-81
2022/08/29 10:23:45;;;;;;;0.40;0.40;;;26.20;99.90;;;;;;5093588;28;20227;-81
2022/08/29 10:26:24;;;;;;;0.47;0.40;;;26.30;99.90;;;;;;5083659;28;20272;-81
2022/08/29 10:29:13;;;;;;;0.50;0.50;;;25.60;99.90;;;;;;5089252;28;20672;-81
2022/08/29 10:31:54;;;;;;;0.30;0.30;;;25.70;99.90;;;;;;5091699;28;20548;-80
2022/08/29 10:34:43;;;;;;;0.77;0.57;;;26.20;99.90;;;;;;5090856;28;20192;-80
2022/08/29 10:37:18;;;;;;;0.63;0.40;;;26.40;99.90;;;;;;5088891;28;20229;-80
2022/08/29 10:40:12;;;;;;;0.20;0.20;;;26.80;99.90;;;;;;5080585;28;20211;-80
2022/08/29 10:42:40;;;;;;;0.67;0.30;;;26.90;99.90;;;;;;5092356;28;20650;-80
2022/08/29 10:45:15;;;;;;;14.67;1.30;;;27.10;99.90;;;;;;5089277;28;20265;-80
2022/08/29 10:48:00;;;;;;;0.57;0.47;;;26.70;99.90;;;;;;5089945;28;20733;-81
2022/08/29 10:50:39;;;;;;;0.77;0.77;;;26.80;99.90;;;;;;5091139;28;20902;-80
2022/08/29 10:53:13;;;;;;;0.53;0.40;;;26.00;99.90;;;;;;5089792;28;20181;-80
2022/08/29 10:55:57;;;;;;;0.30;0.30;;;25.80;99.90;;;;;;5092426;28;20187;-80
2022/08/29 10:58:36;;;;;;;2.37;0.60;;;25.90;99.90;;;;;;5089449;28;20251;-80
2022/08/29 11:01:29;;;;;;;0.70;0.60;;;26.60;99.90;;;;;;5094863;28;20224;-80
2022/08/29 11:04:16;;;;;;;0.83;0.70;;;27.10;99.90;;;;;;5084471;28;20568;-80
2022/08/29 11:07:00;;;;;;;0.40;0.40;;;27.50;99.90;;;;;;5098909;28;20180;-80
2022/08/29 11:09:35;;;;;;;0.90;0.83;;;28.00;99.90;;;;;;5084081;28;20208;-80
2022/08/29 11:12:20;;;;;;;0.27;0.27;;;27.90;99.90;;;;;;5085596;28;20199;-80
2022/08/29 11:14:59;;;;;;;0.67;0.67;;;27.40;99.90;;;;;;5091452;28;20182;-81
2022/08/29 11:17:31;;;;;;;6.03;2.57;;;26.90;99.90;;;;;;5090867;28;20703;-81
2022/08/29 11:20:09;;;;;;;0.60;0.43;;;26.70;99.90;;;;;;5085081;28;20201;-80
2022/08/29 11:22:46;;;;;;;0.47;0.47;;;26.60;99.90;;;;;;5094915;28;20259;-80
2022/08/29 11:25:17;;;;;;;0.50;0.50;;;26.80;99.90;;;;;;5089005;28;20592;-80
2022/08/29 11:28:03;;;;;;;0.63;0.23;;;27.20;99.90;;;;;;5093877;28;20192;-80
2022/08/29 11:30:37;;;;;;;0.37;0.37;;;27.60;99.90;;;;;;5079168;28;20200;-80
2022/08/29 11:33:06;;;;;;;0.70;0.70;;;28.00;99.90;;;;;;5076317;28;20271;-80
2022/08/29 11:35:56;;;;;;;0.97;0.73;;;28.20;99.90;;;;;;5071490;28;20204;-81
2022/08/29 11:38:58;;;;;;;0.40;0.40;;;27.50;99.90;;;;;;5092178;28;20219;-80
2022/08/29 11:41:31;;;;;;;0.50;0.50;;;27.90;99.90;;;;;;5086337;28;20180;-80
2022/08/29 11:44:27;;;;;;;0.30;0.30;;;28.30;99.90;;;;;;5085899;28;20176;-80
2022/08/29 11:46:53;;;;;;;0.30;0.30;;;27.30;99.90;;;;;;5087118;28;20562;-80
2022/08/29 11:49:40;;;;;;;0.33;0.33;;;26.70;99.90;;;;;;5076795;28;20705;-81
2022/08/29 11:52:11;;;;;;;0.43;0.43;;;26.90;99.90;;;;;;5090262;28;20192;-80
2022/08/29 11:54:38;;;;;;;0.40;0.40;;;27.60;99.90;;;;;;5096005;28;20181;-80
2022/08/29 11:57:04;;;;;;;0.73;0.73;;;28.00;99.90;;;;;;5085046;28;20212;-80
2022/08/29 11:59:48;;;;;;;0.30;0.30;;;28.10;99.90;;;;;;5082933;28;20250;-80
2022/08/29 12:02:29;;;;;;;0.27;0.27;;;28.40;99.90;;;;;;5085821;28;20638;-81
2022/08/29 12:05:05;;;;;;;0.32;0.32;;;28.40;99.90;;;;;;5073720;28;20658;-81
2022/08/29 12:07:48;;;;;;;0.40;0.40;;;28.60;99.90;;;;;;5089346;28;20187;-80
2022/08/29 12:10:27;;;;;;;0.70;0.70;;;28.10;99.90;;;;;;5071429;28;20674;-80
2022/08/29 12:13:04;;;;;;;0.30;0.30;;;28.60;99.90;;;;;;5081974;28;20556;-80
2022/08/29 12:15:32;;;;;;;0.28;0.28;;;28.40;99.90;;;;;;5094353;28;20195;-80
2022/08/29 12:18:21;;;;;;;0.40;0.40;;;28.50;99.90;;;;;;5081693;28;20200;-80
2022/08/29 12:20:49;;;;;;;0.35;0.35;;;28.90;99.90;;;;;;5084580;28;20195;-81
2022/08/29 12:23:30;;;;;;;0.50;0.50;;;28.40;99.90;;;;;;5088755;28;20183;-80
2022/08/29 12:26:04;;;;;;;0.90;0.65;;;28.80;99.90;;;;;;5084112;28;20176;-80
2022/08/29 12:28:30;;;;;;;0.45;0.45;;;29.10;99.90;;;;;;5078496;28;20219;-80
2022/08/29 12:31:04;;;;;;;0.40;0.40;;;29.20;99.90;;;;;;5075860;28;20178;-80
2022/08/29 12:33:50;;;;;;;2.50;1.60;;;29.20;99.90;;;;;;5081790;28;20603;-81
2022/08/29 12:36:53;;;;;;;5.65;0.52;;;28.60;99.90;;;;;;5079682;28;20271;-81
2022/08/29 12:39:45;;;;;;;0.30;0.30;;;27.10;99.90;;;;;;5080497;28;20298;-80
2022/08/29 12:42:24;;;;;;;0.63;0.47;;;28.00;99.90;;;;;;5080588;28;20565;-80
2022/08/29 12:45:03;;;;;;;0.30;0.30;;;28.60;99.90;;;;;;5082623;28;20173;-81
2022/08/29 12:47:38;;;;;;;0.47;0.47;;;28.60;99.90;;;;;;5078493;28;20185;-80
2022/08/29 12:50:13;;;;;;;1.02;0.98;;;28.80;99.90;;;;;;5084660;28;20212;-80
2022/08/29 12:52:38;;;;;;;1.15;0.55;;;29.10;99.90;;;;;;5074608;28;20534;-80
2022/08/29 12:55:26;;;;;;;0.40;0.40;;;29.20;99.90;;;;;;5074310;28;20669;-80
2022/08/29 12:57:52;;;;;;;0.82;0.70;;;29.20;99.90;;;;;;5076952;28;20203;-81
2022/08/29 13:00:25;;;;;;;0.60;0.60;;;29.00;99.90;;;;;;5078117;28;20177;-81
2022/08/29 13:03:00;;;;;;;0.85;0.43;;;27.80;99.90;;;;;;5075203;28;20225;-80
2022/08/29 13:05:29;;;;;;;0.55;0.55;;;27.50;99.90;;;;;;5079838;28;20203;-81
2022/08/29 13:07:59;;;;;;;1.58;0.52;;;26.70;99.90;;;;;;5077226;28;20685;-80